createdAt,value
2017-12-24T00:02:20.694Z,11.70
2017-12-24T00:04:48.148Z,14.47
2017-12-24T00:07:15.617Z,12.83
2017-12-24T00:09:43.059Z,13.40
2017-12-24T00:12:10.562Z,11.47
2017-12-24T00:14:38.015Z,13.70
2017-12-24T00:17:05.466Z,13.03
2017-12-24T00:19:32.946Z,13.60
2017-12-24T00:22:00.412Z,12.40
2017-12-24T00:24:27.883Z,12.03
2017-12-24T00:26:55.334Z,13.20
2017-12-24T00:29:22.813Z,12.27
2017-12-24T00:31:50.267Z,11.90
2017-12-24T00:34:17.768Z,13.60
2017-12-24T00:36:45.217Z,11.50
2017-12-24T00:39:12.671Z,12.20
2017-12-24T00:41:40.149Z,12.20
2017-12-24T00:44:07.619Z,12.43
2017-12-24T00:46:35.123Z,12.13
2017-12-24T00:49:02.626Z,13.10
2017-12-24T00:51:30.088Z,12.57
2017-12-24T00:53:57.559Z,12.93
2017-12-24T00:56:25.003Z,13.43
2017-12-24T00:58:52.483Z,12.80
2017-12-24T01:01:19.930Z,13.27
2017-12-24T01:03:47.427Z,12.07
2017-12-24T01:06:14.893Z,12.90
2017-12-24T01:08:42.342Z,14.33
2017-12-24T01:11:09.820Z,12.60
2017-12-24T01:13:37.283Z,12.70
2017-12-24T01:16:04.759Z,11.90
2017-12-24T01:18:32.214Z,13.77
2017-12-24T01:20:59.683Z,11.40
2017-12-24T01:23:27.157Z,12.10
2017-12-24T01:25:54.648Z,11.27
2017-12-24T01:28:22.095Z,12.17
2017-12-24T01:30:49.579Z,13.63
2017-12-24T01:33:17.036Z,11.90
2017-12-24T01:35:44.491Z,12.60
2017-12-24T01:38:11.962Z,11.70
2017-12-24T01:40:39.434Z,13.40
2017-12-24T01:43:06.883Z,11.80
2017-12-24T01:45:34.331Z,11.87
2017-12-24T01:48:01.801Z,10.83
2017-12-24T01:50:29.262Z,12.17
2017-12-24T01:52:56.722Z,11.60
2017-12-24T01:55:24.173Z,11.77
2017-12-24T01:57:51.643Z,12.27
2017-12-24T02:00:19.103Z,11.80
2017-12-24T02:02:46.568Z,15.20
2017-12-24T02:05:14.045Z,11.23
2017-12-24T02:07:41.517Z,14.03
2017-12-24T02:10:08.975Z,12.40
2017-12-24T02:12:36.482Z,12.37
2017-12-24T02:15:03.939Z,14.80
2017-12-24T02:17:31.395Z,15.20
2017-12-24T02:19:58.863Z,12.97
2017-12-24T02:22:26.312Z,13.50
2017-12-24T02:24:53.788Z,13.40
2017-12-24T02:27:21.252Z,14.13
2017-12-24T02:29:48.722Z,13.37
2017-12-24T02:32:16.179Z,11.43
2017-12-24T02:34:43.667Z,13.07
2017-12-24T02:37:11.119Z,12.77
2017-12-24T02:39:38.576Z,12.40
2017-12-24T02:42:06.052Z,12.60
2017-12-24T02:44:33.514Z,13.97
2017-12-24T02:47:00.985Z,14.83
2017-12-24T02:49:28.435Z,14.37
2017-12-24T02:51:55.904Z,13.30
2017-12-24T02:54:23.347Z,13.87
2017-12-24T02:56:50.835Z,13.70
2017-12-24T02:59:18.292Z,13.77
2017-12-24T03:01:45.753Z,13.57
2017-12-24T03:04:13.203Z,12.23
2017-12-24T03:06:40.739Z,13.40
2017-12-24T03:09:08.187Z,13.20
2017-12-24T03:11:35.655Z,12.77
2017-12-24T03:14:03.103Z,12.33
2017-12-24T03:16:30.571Z,12.23
2017-12-24T03:18:58.023Z,12.40
2017-12-24T03:21:25.473Z,12.80
2017-12-24T03:23:52.935Z,12.03
2017-12-24T03:26:20.411Z,12.47
2017-12-24T03:28:47.874Z,12.70
2017-12-24T03:31:15.641Z,13.37
2017-12-24T03:33:43.038Z,12.47
2017-12-24T03:36:10.491Z,13.07
2017-12-24T03:38:37.950Z,12.70
2017-12-24T03:41:05.413Z,11.90
2017-12-24T03:43:32.896Z,13.40
2017-12-24T03:46:00.352Z,13.17
2017-12-24T03:48:27.835Z,13.80
2017-12-24T03:50:55.283Z,14.33
2017-12-24T03:53:22.752Z,14.57
2017-12-24T03:55:50.208Z,12.83
2017-12-24T03:58:17.652Z,15.07
2017-12-24T04:00:45.126Z,12.00
2017-12-24T04:03:12.580Z,13.13
2017-12-24T04:05:40.051Z,11.97
2017-12-24T04:08:07.504Z,12.20
2017-12-24T04:10:34.965Z,12.33
2017-12-24T04:13:02.411Z,12.53
2017-12-24T04:15:29.911Z,12.10
2017-12-24T04:17:57.358Z,12.50
2017-12-24T04:20:24.819Z,12.30
2017-12-24T04:22:52.287Z,12.17
2017-12-24T04:25:19.743Z,13.00
2017-12-24T04:27:47.218Z,13.30
2017-12-24T04:30:14.707Z,11.67
2017-12-24T04:32:42.175Z,11.00
2017-12-24T04:35:09.631Z,13.90
2017-12-24T04:37:37.114Z,11.97
2017-12-24T04:40:04.568Z,12.40
2017-12-24T04:42:32.072Z,13.33
2017-12-24T04:44:59.526Z,12.27
2017-12-24T04:47:26.992Z,13.83
2017-12-24T04:49:54.454Z,12.30
2017-12-24T04:52:21.911Z,13.20
2017-12-24T04:54:49.394Z,13.00
2017-12-24T04:57:16.855Z,13.27
2017-12-24T04:59:44.360Z,12.93
2017-12-24T05:02:11.818Z,13.50
2017-12-24T05:04:39.275Z,12.60
2017-12-24T05:07:06.739Z,13.53
2017-12-24T05:09:34.190Z,12.90
2017-12-24T05:12:01.642Z,13.47
2017-12-24T05:14:29.103Z,14.00
2017-12-24T05:16:56.563Z,12.63
2017-12-24T05:19:24.063Z,11.97
2017-12-24T05:21:51.514Z,13.33
2017-12-24T05:24:18.990Z,12.40
2017-12-24T05:26:46.461Z,10.57
2017-12-24T05:29:13.918Z,11.40
2017-12-24T05:31:41.374Z,11.30
2017-12-24T05:34:08.830Z,10.27
2017-12-24T05:36:36.334Z,10.23
2017-12-24T05:39:03.779Z,9.67
2017-12-24T05:41:31.233Z,10.07
2017-12-24T05:43:58.723Z,8.63
2017-12-24T05:46:26.171Z,9.57
2017-12-24T05:48:53.774Z,8.60
2017-12-24T05:51:21.233Z,8.40
2017-12-24T05:53:48.684Z,10.00
2017-12-24T05:56:16.171Z,9.57
2017-12-24T05:58:43.624Z,9.70
2017-12-24T06:01:11.081Z,10.17
2017-12-24T06:03:38.555Z,10.13
2017-12-24T06:06:05.998Z,9.97
2017-12-24T06:08:33.459Z,9.23
2017-12-24T06:11:00.907Z,9.37
2017-12-24T06:13:28.375Z,9.67
2017-12-24T06:15:55.836Z,7.17
2017-12-24T06:18:23.313Z,8.80
2017-12-24T06:20:50.775Z,8.70
2017-12-24T06:23:18.266Z,8.70
2017-12-24T06:25:45.729Z,9.03
2017-12-24T06:28:13.184Z,8.87
2017-12-24T06:30:40.647Z,8.50
2017-12-24T06:33:08.093Z,7.87
2017-12-24T06:35:35.599Z,8.67
2017-12-24T06:38:03.065Z,9.23
2017-12-24T06:40:30.511Z,9.00
2017-12-24T06:42:58.043Z,8.80
2017-12-24T06:45:25.491Z,8.63
2017-12-24T06:47:52.943Z,8.07
2017-12-24T06:50:20.417Z,9.07
2017-12-24T06:52:47.863Z,7.20
2017-12-24T06:55:15.495Z,9.27
2017-12-24T06:57:42.949Z,9.07
2017-12-24T07:00:10.397Z,9.00
2017-12-24T07:02:38.057Z,9.53
2017-12-24T07:05:05.504Z,10.10
2017-12-24T07:07:32.973Z,10.23
2017-12-24T07:10:00.440Z,13.03
2017-12-24T07:12:27.904Z,11.67
2017-12-24T07:14:55.548Z,11.27
2017-12-24T07:17:23.002Z,10.93
2017-12-24T07:19:50.456Z,11.90
2017-12-24T07:22:17.928Z,11.63
2017-12-24T07:24:45.378Z,11.20
2017-12-24T07:27:12.858Z,10.90
2017-12-24T07:29:40.327Z,11.90
2017-12-24T07:32:07.806Z,11.43
2017-12-24T07:34:35.268Z,11.87
2017-12-24T07:37:02.740Z,11.37
2017-12-24T07:39:30.193Z,10.37
2017-12-24T07:41:57.687Z,10.83
2017-12-24T07:44:25.143Z,10.77
2017-12-24T07:46:52.651Z,11.70
2017-12-24T07:49:20.115Z,10.63
2017-12-24T07:51:47.572Z,11.47
2017-12-24T07:54:15.048Z,10.83
2017-12-24T07:56:42.511Z,10.03
2017-12-24T07:59:09.977Z,10.00
2017-12-24T08:01:37.427Z,10.20
2017-12-24T08:04:04.901Z,11.20
2017-12-24T08:06:32.361Z,11.57
2017-12-24T08:08:59.861Z,10.47
2017-12-24T08:11:27.307Z,10.73
2017-12-24T08:13:54.753Z,10.97
2017-12-24T08:16:22.222Z,10.50
2017-12-24T08:18:49.677Z,10.80
2017-12-24T08:21:17.146Z,11.37
2017-12-24T08:23:44.595Z,10.30
2017-12-24T08:26:12.051Z,9.73
2017-12-24T08:28:39.508Z,10.60
2017-12-24T08:31:06.987Z,11.30
2017-12-24T08:33:34.438Z,11.03
2017-12-24T08:36:01.923Z,11.20
2017-12-24T08:38:29.392Z,11.57
2017-12-24T08:40:56.845Z,11.70
2017-12-24T08:43:24.311Z,10.90
2017-12-24T08:45:51.759Z,12.10
2017-12-24T08:48:19.252Z,10.47
2017-12-24T08:50:46.698Z,9.70
2017-12-24T08:53:14.155Z,13.20
2017-12-24T08:55:41.619Z,12.80
2017-12-24T08:58:09.069Z,12.43
2017-12-24T09:00:36.564Z,10.40
2017-12-24T09:03:04.032Z,11.70
2017-12-24T09:05:31.503Z,11.30
2017-12-24T09:07:58.967Z,11.53
2017-12-24T09:10:26.423Z,11.00
2017-12-24T09:12:53.939Z,10.37
2017-12-24T09:15:21.399Z,10.53
2017-12-24T09:17:48.859Z,9.53
2017-12-24T09:20:16.319Z,10.90
2017-12-24T09:22:43.809Z,9.97
2017-12-24T09:25:11.250Z,9.70
2017-12-24T09:27:38.720Z,10.00
2017-12-24T09:30:06.188Z,10.97
2017-12-24T09:32:33.631Z,9.90
2017-12-24T09:35:01.101Z,11.53
2017-12-24T09:37:28.551Z,11.87
2017-12-24T09:39:56.061Z,11.87
2017-12-24T09:42:23.529Z,11.13
2017-12-24T09:44:50.975Z,11.03
2017-12-24T09:47:18.468Z,11.33
2017-12-24T09:49:45.917Z,13.30
2017-12-24T09:52:13.379Z,12.40
2017-12-24T09:54:40.840Z,12.57
2017-12-24T09:57:08.311Z,12.27
2017-12-24T09:59:35.771Z,13.20
2017-12-24T10:02:03.243Z,13.27
2017-12-24T10:04:30.691Z,14.40
2017-12-24T10:06:58.151Z,13.70
2017-12-24T10:09:25.598Z,12.77
2017-12-24T10:11:53.075Z,14.00
2017-12-24T10:14:20.529Z,13.67
2017-12-24T10:16:47.997Z,13.53
2017-12-24T10:19:15.466Z,12.53
2017-12-24T10:21:42.927Z,11.60
2017-12-24T10:24:10.391Z,13.43
2017-12-24T10:29:11.598Z,12.03
2017-12-24T10:31:39.076Z,11.60
2017-12-24T10:34:06.547Z,10.83
2017-12-24T10:36:34.019Z,9.57
2017-12-24T10:39:01.480Z,8.80
2017-12-24T10:41:28.927Z,9.67
2017-12-24T10:43:56.386Z,9.37
2017-12-24T10:46:23.838Z,8.50
2017-12-24T10:48:51.295Z,8.70
2017-12-24T10:51:18.747Z,9.90
2017-12-24T10:53:46.234Z,8.97
2017-12-24T10:56:13.687Z,8.73
2017-12-24T10:58:41.127Z,7.60
2017-12-24T11:01:08.606Z,7.80
2017-12-24T11:03:36.051Z,7.63
2017-12-24T11:06:03.536Z,9.10
2017-12-24T11:08:30.988Z,8.27
2017-12-24T11:10:58.464Z,9.23
2017-12-24T11:13:25.919Z,8.60
2017-12-24T11:15:53.403Z,8.30
2017-12-24T11:18:20.867Z,7.43
2017-12-24T11:20:48.328Z,10.60
2017-12-24T11:23:15.797Z,9.50
2017-12-24T11:25:43.282Z,7.73
2017-12-24T11:28:10.735Z,9.53
2017-12-24T11:30:38.188Z,8.80
2017-12-24T11:33:05.678Z,8.90
2017-12-24T11:35:33.119Z,8.40
2017-12-24T11:38:00.608Z,8.63
2017-12-24T11:40:28.055Z,9.10
2017-12-24T11:42:55.664Z,9.03
2017-12-24T11:45:23.106Z,8.33
2017-12-24T11:47:50.559Z,9.27
2017-12-24T11:50:18.035Z,8.87
2017-12-24T11:52:45.485Z,9.57
2017-12-24T11:55:12.956Z,10.07
2017-12-24T11:57:40.415Z,9.10
2017-12-24T12:00:07.894Z,8.70
2017-12-24T12:02:35.347Z,9.27
2017-12-24T12:05:02.822Z,8.40
2017-12-24T12:07:30.360Z,8.23
2017-12-24T12:09:57.797Z,7.90
2017-12-24T12:12:25.274Z,9.90
2017-12-24T12:14:52.742Z,9.07
2017-12-24T12:17:20.192Z,9.00
2017-12-24T12:19:47.695Z,8.77
2017-12-24T12:22:15.142Z,8.40
2017-12-24T12:24:42.599Z,6.70
2017-12-24T12:27:10.072Z,8.70
2017-12-24T12:29:37.536Z,9.27
2017-12-24T12:32:05.015Z,8.03
2017-12-24T12:34:32.476Z,9.20
2017-12-24T12:36:59.947Z,9.23
2017-12-24T12:39:27.443Z,7.50
2017-12-24T12:41:54.909Z,8.57
2017-12-24T12:44:22.367Z,7.73
2017-12-24T12:46:49.868Z,7.63
2017-12-24T12:49:17.324Z,8.30
2017-12-24T12:51:44.784Z,8.13
2017-12-24T12:54:12.263Z,8.97
2017-12-24T12:56:39.712Z,8.10
2017-12-24T12:59:07.199Z,6.90
2017-12-24T13:01:34.651Z,8.43
2017-12-24T13:04:02.123Z,9.73
2017-12-24T13:06:29.635Z,8.40
2017-12-24T13:08:57.111Z,8.23
2017-12-24T13:11:24.569Z,7.80
2017-12-24T13:13:52.032Z,9.03
2017-12-24T13:16:19.491Z,7.87
2017-12-24T13:18:46.957Z,8.63
2017-12-24T13:21:14.414Z,8.87
2017-12-24T13:23:41.891Z,8.40
2017-12-24T13:26:09.348Z,8.90
2017-12-24T13:28:36.803Z,8.20
2017-12-24T13:31:04.271Z,8.57
2017-12-24T13:33:31.734Z,7.53
2017-12-24T13:35:59.227Z,7.70
2017-12-24T13:38:26.687Z,6.87
2017-12-24T13:40:54.134Z,6.83
2017-12-24T13:43:21.606Z,7.20
2017-12-24T13:45:49.065Z,7.23
2017-12-24T13:48:16.545Z,6.90
2017-12-24T13:50:43.985Z,6.87
2017-12-24T13:53:11.475Z,8.07
2017-12-24T13:55:38.928Z,7.57
2017-12-24T13:58:06.386Z,7.60
2017-12-24T14:00:33.847Z,6.67
2017-12-24T14:03:01.290Z,7.50
2017-12-24T14:05:28.752Z,8.27
2017-12-24T14:07:56.202Z,7.20
2017-12-24T14:10:23.675Z,7.67
2017-12-24T14:12:51.117Z,6.70
2017-12-24T14:15:18.604Z,6.70
2017-12-24T14:17:46.051Z,6.70
2017-12-24T14:20:13.531Z,7.70
2017-12-24T14:22:40.994Z,7.40
2017-12-24T14:25:08.447Z,8.83
2017-12-24T14:27:35.907Z,8.93
2017-12-24T14:30:03.363Z,8.63
2017-12-24T14:32:30.852Z,9.50
2017-12-24T14:34:58.306Z,9.00
2017-12-24T14:37:25.752Z,7.70
2017-12-24T14:39:53.210Z,9.97
2017-12-24T14:42:20.672Z,8.23
2017-12-24T14:44:48.163Z,8.30
2017-12-24T14:47:15.604Z,8.47
2017-12-24T14:49:43.111Z,8.17
2017-12-24T14:52:10.564Z,7.90
2017-12-24T14:54:38.007Z,8.30
2017-12-24T14:57:05.462Z,9.30
2017-12-24T14:59:32.919Z,8.77
2017-12-24T15:02:00.383Z,7.50
2017-12-24T15:04:27.832Z,8.10
2017-12-24T15:06:55.320Z,7.60
2017-12-24T15:09:22.802Z,7.40
2017-12-24T15:11:50.256Z,7.43
2017-12-24T15:14:17.730Z,7.70
2017-12-24T15:16:45.176Z,8.40
2017-12-24T15:19:12.643Z,9.70
2017-12-24T15:21:40.107Z,8.10
2017-12-24T15:24:07.696Z,8.83
2017-12-24T15:26:35.159Z,9.47
2017-12-24T15:29:02.608Z,9.13
2017-12-24T15:31:30.062Z,8.30
2017-12-24T15:33:57.522Z,8.40
2017-12-24T15:36:24.995Z,9.13
2017-12-24T15:38:52.484Z,10.60
2017-12-24T15:41:19.957Z,9.77
2017-12-24T15:43:47.403Z,8.93
2017-12-24T15:46:14.900Z,8.60
2017-12-24T15:48:42.361Z,9.00
2017-12-24T15:51:09.811Z,7.90
2017-12-24T15:53:37.284Z,8.67
2017-12-24T15:56:04.724Z,8.30
2017-12-24T15:58:32.187Z,8.87
2017-12-24T16:00:59.635Z,9.50
2017-12-24T16:03:27.288Z,9.30
2017-12-24T16:05:54.729Z,7.90
2017-12-24T16:08:22.184Z,8.30
2017-12-24T16:10:49.655Z,8.67
2017-12-24T16:13:17.100Z,7.40
2017-12-24T16:15:44.768Z,7.97
2017-12-24T16:18:12.212Z,7.70
2017-12-24T16:20:39.674Z,8.40
2017-12-24T16:23:07.137Z,9.50
2017-12-24T16:25:34.593Z,9.30
2017-12-24T16:28:02.088Z,8.50
2017-12-24T16:30:29.544Z,9.87
2017-12-24T16:32:57.005Z,8.27
2017-12-24T16:35:24.484Z,11.00
2017-12-24T16:37:51.930Z,9.10
2017-12-24T16:40:19.407Z,9.57
2017-12-24T16:42:46.859Z,10.00
2017-12-24T16:45:14.308Z,10.30
2017-12-24T16:47:41.772Z,8.80
2017-12-24T16:50:09.225Z,8.73
2017-12-24T16:52:36.691Z,8.90
2017-12-24T16:55:04.138Z,8.90
2017-12-24T16:57:31.599Z,8.90
2017-12-24T16:59:59.043Z,9.53
2017-12-24T17:02:26.503Z,9.20
2017-12-24T17:04:53.963Z,9.60
2017-12-24T17:07:21.413Z,9.80
2017-12-24T17:09:48.866Z,9.50
2017-12-24T17:12:16.318Z,10.87
2017-12-24T17:14:43.802Z,9.50
2017-12-24T17:17:11.247Z,10.20
2017-12-24T17:19:38.702Z,9.30
2017-12-24T17:22:06.200Z,9.53
2017-12-24T17:24:33.646Z,11.70
2017-12-24T17:27:01.132Z,10.43
2017-12-24T17:29:28.592Z,11.27
2017-12-24T17:31:56.914Z,10.70
2017-12-24T17:34:24.380Z,10.20
2017-12-24T17:36:51.834Z,10.77
2017-12-24T17:39:19.578Z,10.00
2017-12-24T17:41:47.038Z,12.87
2017-12-24T17:44:14.493Z,10.80
2017-12-24T17:46:41.963Z,10.47
2017-12-24T17:49:09.415Z,10.60
2017-12-24T17:51:36.901Z,9.83
2017-12-24T17:54:04.351Z,11.43
2017-12-24T17:56:31.842Z,10.63
2017-12-24T17:58:59.288Z,10.80
2017-12-24T18:01:26.787Z,11.30
2017-12-24T18:03:54.239Z,11.00
2017-12-24T18:06:21.695Z,11.60
2017-12-24T18:08:49.162Z,10.87
2017-12-24T18:11:16.611Z,10.63
2017-12-24T18:13:44.067Z,11.70
2017-12-24T18:16:11.546Z,11.43
2017-12-24T18:18:39.033Z,11.47
2017-12-24T18:21:06.492Z,11.37
2017-12-24T18:23:33.959Z,10.30
2017-12-24T18:26:01.400Z,11.30
2017-12-24T18:28:28.871Z,11.40
2017-12-24T18:30:56.316Z,11.07
2017-12-24T18:33:23.923Z,11.10
2017-12-24T18:35:51.377Z,10.63
2017-12-24T18:38:18.823Z,10.37
2017-12-24T18:40:46.296Z,10.30
2017-12-24T18:43:13.746Z,11.17
2017-12-24T18:45:41.211Z,12.00
2017-12-24T18:48:08.659Z,11.73
2017-12-24T18:50:36.158Z,10.20
2017-12-24T18:53:03.624Z,11.70
2017-12-24T18:55:31.125Z,10.87
2017-12-24T18:57:58.587Z,11.10
2017-12-24T19:00:26.039Z,11.33
2017-12-24T19:02:53.499Z,11.87
2017-12-24T19:05:20.956Z,10.50
2017-12-24T19:07:48.447Z,11.70
2017-12-24T19:10:15.907Z,11.97
2017-12-24T19:12:43.355Z,11.83
2017-12-24T19:15:10.823Z,11.70
2017-12-24T19:17:38.278Z,10.93
2017-12-24T19:20:05.737Z,11.00
2017-12-24T19:22:33.217Z,12.83
2017-12-24T19:25:00.680Z,10.90
2017-12-24T19:27:28.123Z,12.33
2017-12-24T19:29:55.622Z,12.40
2017-12-24T19:32:23.076Z,12.50
2017-12-24T19:34:50.524Z,12.13
2017-12-24T19:37:17.992Z,11.10
2017-12-24T19:39:45.623Z,11.07
2017-12-24T19:42:13.067Z,12.70
2017-12-24T19:44:40.519Z,13.20
2017-12-24T19:47:07.982Z,12.40
2017-12-24T19:49:35.471Z,14.00
2017-12-24T19:52:02.928Z,12.80
2017-12-24T19:54:30.429Z,12.60
2017-12-24T19:56:57.865Z,12.83
2017-12-24T19:59:25.319Z,12.50
2017-12-24T20:01:52.819Z,12.60
2017-12-24T20:04:20.262Z,12.87
2017-12-24T20:06:47.712Z,13.07
2017-12-24T20:09:15.180Z,14.20
2017-12-24T20:11:42.628Z,12.93
2017-12-24T20:14:10.093Z,14.73
2017-12-24T20:16:37.568Z,13.50
2017-12-24T20:19:05.071Z,13.43
2017-12-24T20:21:32.545Z,14.87
2017-12-24T20:23:59.995Z,12.37
2017-12-24T20:26:27.467Z,13.60
2017-12-24T20:28:54.914Z,12.07
2017-12-24T20:31:22.383Z,12.67
2017-12-24T20:33:49.831Z,13.83
2017-12-24T20:36:17.298Z,14.03
2017-12-24T20:38:44.750Z,13.73
2017-12-24T20:41:12.256Z,13.63
2017-12-24T20:43:39.709Z,14.50
2017-12-24T20:46:07.163Z,15.00
2017-12-24T20:48:34.628Z,14.70
2017-12-24T20:51:02.087Z,13.17
2017-12-24T20:53:29.559Z,13.77
2017-12-24T20:55:57.012Z,12.87
2017-12-24T20:58:24.476Z,14.90
2017-12-24T21:00:51.931Z,15.13
2017-12-24T21:03:19.378Z,12.90
2017-12-24T21:05:46.858Z,13.40
2017-12-24T21:08:14.312Z,12.70
2017-12-24T21:10:41.814Z,12.97
2017-12-24T21:13:09.263Z,12.17
2017-12-24T21:15:36.707Z,11.10
2017-12-24T21:18:04.176Z,11.80
2017-12-24T21:20:31.629Z,13.53
2017-12-24T21:22:59.092Z,13.60
2017-12-24T21:25:26.547Z,13.30
2017-12-24T21:27:54.035Z,12.90
2017-12-24T21:30:21.502Z,12.80
2017-12-24T21:32:48.978Z,13.37
2017-12-24T21:35:16.439Z,12.93
2017-12-24T21:37:43.892Z,14.00
2017-12-24T21:40:11.396Z,12.67
2017-12-24T21:42:38.847Z,12.47
2017-12-24T21:45:06.302Z,12.50
2017-12-24T21:47:33.786Z,13.40
2017-12-24T21:50:01.238Z,13.93
2017-12-24T21:52:28.692Z,13.47
2017-12-24T21:54:56.154Z,14.43
2017-12-24T21:57:23.614Z,13.00
2017-12-24T21:59:51.080Z,13.27
2017-12-24T22:02:18.527Z,14.00
2017-12-24T22:04:46.011Z,15.20
2017-12-24T22:07:13.467Z,13.97
2017-12-24T22:09:40.923Z,13.57
2017-12-24T22:12:08.389Z,15.20
2017-12-24T22:14:35.851Z,13.97
2017-12-24T22:17:03.495Z,14.70
2017-12-24T22:19:30.950Z,14.43
2017-12-24T22:21:58.398Z,14.50
2017-12-24T22:24:25.868Z,15.30
2017-12-24T22:26:53.324Z,16.90
2017-12-24T22:29:20.792Z,14.37
2017-12-24T22:31:48.235Z,15.67
2017-12-24T22:34:15.701Z,16.23
2017-12-24T22:36:43.147Z,15.43
2017-12-24T22:39:10.614Z,16.03
2017-12-24T22:41:38.071Z,15.93
2017-12-24T22:44:05.577Z,15.03
2017-12-24T22:46:33.026Z,15.70
2017-12-24T22:49:00.480Z,15.60
2017-12-24T22:51:27.946Z,17.63
2017-12-24T22:53:55.399Z,16.57
2017-12-24T22:56:23.091Z,17.50
2017-12-24T22:58:50.666Z,15.67
2017-12-24T23:01:18.127Z,17.70
2017-12-24T23:03:45.603Z,18.23
2017-12-24T23:06:13.050Z,16.13
2017-12-24T23:08:40.675Z,17.63
2017-12-24T23:11:08.131Z,16.73
2017-12-24T23:13:35.583Z,17.67
2017-12-24T23:16:03.057Z,16.50
2017-12-24T23:18:30.519Z,18.53
2017-12-24T23:20:57.983Z,19.07
2017-12-24T23:23:25.428Z,18.73
2017-12-24T23:25:52.927Z,16.17
2017-12-24T23:28:20.675Z,19.50
2017-12-24T23:30:48.151Z,20.13
2017-12-24T23:33:15.613Z,18.13
2017-12-24T23:35:43.084Z,17.30
2017-12-24T23:38:10.590Z,17.87
2017-12-24T23:40:38.056Z,19.10
2017-12-24T23:43:05.507Z,16.47
2017-12-24T23:45:32.983Z,16.87
2017-12-24T23:48:00.433Z,15.20
2017-12-24T23:50:27.902Z,17.43
2017-12-24T23:52:55.354Z,15.60
2017-12-24T23:55:22.820Z,17.83
2017-12-24T23:57:50.298Z,18.10
